sensor_id;sensor_type;location;lat;lon;timestamp;pressure;altitude;pressure_sealevel;temperature;humidity
78667;BME280;67983;59.830;30.198;2023-05-10T00:01:14;102240.53;;;9.77;32.10
78667;BME280;67983;59.830;30.198;2023-05-10T00:03:41;102240.59;;;9.75;32.45
78667;BME280;67983;59.830;30.198;2023-05-10T00:06:10;102235.44;;;9.72;32.42
78667;BME280;67983;59.830;30.198;2023-05-10T00:08:39;102233.81;;;9.68;32.57
78667;BME280;67983;59.830;30.198;2023-05-10T00:11:07;102238.13;;;9.71;32.64
78667;BME280;67983;59.830;30.198;2023-05-10T00:13:35;102249.66;;;9.70;32.86
78667;BME280;67983;59.830;30.198;2023-05-10T00:16:04;102240.97;;;9.66;33.05
78667;BME280;67983;59.830;30.198;2023-05-10T00:18:31;102241.06;;;9.63;33.06
78667;BME280;67983;59.830;30.198;2023-05-10T00:20:59;102235.81;;;9.62;33.31
78667;BME280;67983;59.830;30.198;2023-05-10T00:23:30;102238.47;;;9.62;32.89
78667;BME280;67983;59.830;30.198;2023-05-10T00:25:57;102238.41;;;9.63;33.17
78667;BME280;67983;59.830;30.198;2023-05-10T00:28:28;102230.41;;;9.65;32.70
78667;BME280;67983;59.830;30.198;2023-05-10T00:30:55;102234.81;;;9.66;32.61
78667;BME280;67983;59.830;30.198;2023-05-10T00:33:22;102234.81;;;9.66;32.06
78667;BME280;67983;59.830;30.198;2023-05-10T00:35:51;102235.75;;;9.63;32.19
78667;BME280;67983;59.830;30.198;2023-05-10T00:38:19;102233.22;;;9.60;32.78
78667;BME280;67983;59.830;30.198;2023-05-10T00:40:47;102235.94;;;9.58;32.49
78667;BME280;67983;59.830;30.198;2023-05-10T00:43:22;102236.06;;;9.55;32.78
78667;BME280;67983;59.830;30.198;2023-05-10T00:45:49;102238.84;;;9.52;32.90
78667;BME280;67983;59.830;30.198;2023-05-10T00:48:16;102240.78;;;9.47;33.21
78667;BME280;67983;59.830;30.198;2023-05-10T00:50:43;102239.28;;;9.40;33.91
78667;BME280;67983;59.830;30.198;2023-05-10T00:53:11;102239.50;;;9.34;33.99
78667;BME280;67983;59.830;30.198;2023-05-10T00:55:39;102241.50;;;9.27;34.12
78667;BME280;67983;59.830;30.198;2023-05-10T00:58:09;102225.00;;;9.21;34.15
78667;BME280;67983;59.830;30.198;2023-05-10T01:00:37;102231.28;;;9.17;34.31
78667;BME280;67983;59.830;30.198;2023-05-10T01:03:10;102231.34;;;9.15;34.67
78667;BME280;67983;59.830;30.198;2023-05-10T01:05:37;102235.03;;;9.11;34.93
78667;BME280;67983;59.830;30.198;2023-05-10T01:08:04;102233.31;;;9.10;34.92
78667;BME280;67983;59.830;30.198;2023-05-10T01:10:32;102232.44;;;9.10;34.82
78667;BME280;67983;59.830;30.198;2023-05-10T01:13:02;102228.13;;;9.07;35.16
78667;BME280;67983;59.830;30.198;2023-05-10T01:15:32;102225.53;;;9.06;34.73
78667;BME280;67983;59.830;30.198;2023-05-10T01:18:00;102225.69;;;9.01;35.50
78667;BME280;67983;59.830;30.198;2023-05-10T01:20:34;102227.41;;;9.02;35.64
78667;BME280;67983;59.830;30.198;2023-05-10T01:23:31;102221.31;;;9.00;35.96
78667;BME280;67983;59.830;30.198;2023-05-10T01:26:26;102225.00;;;8.96;36.61
78667;BME280;67983;59.830;30.198;2023-05-10T01:29:17;102225.97;;;8.93;36.46
78667;BME280;67983;59.830;30.198;2023-05-10T01:32:17;102217.34;;;8.87;37.07
78667;BME280;67983;59.830;30.198;2023-05-10T01:34:55;102233.16;;;8.90;36.52
78667;BME280;67983;59.830;30.198;2023-05-10T01:37:35;102239.38;;;8.89;36.65
78667;BME280;67983;59.830;30.198;2023-05-10T01:40:07;102234.09;;;8.89;36.61
78667;BME280;67983;59.830;30.198;2023-05-10T01:42:39;102227.03;;;8.88;36.25
78667;BME280;67983;59.830;30.198;2023-05-10T01:45:23;102234.16;;;8.86;36.29
78667;BME280;67983;59.830;30.198;2023-05-10T01:48:01;102231.47;;;8.87;36.47
78667;BME280;67983;59.830;30.198;2023-05-10T01:50:35;102225.28;;;8.87;37.06
78667;BME280;67983;59.830;30.198;2023-05-10T01:53:07;102229.72;;;8.86;37.03
78667;BME280;67983;59.830;30.198;2023-05-10T01:55:38;102229.72;;;8.86;36.89
78667;BME280;67983;59.830;30.198;2023-05-10T01:58:09;102231.47;;;8.87;36.66
78667;BME280;67983;59.830;30.198;2023-05-10T02:00:41;102233.97;;;8.92;37.03
78667;BME280;67983;59.830;30.198;2023-05-10T02:03:13;102232.94;;;8.96;37.05
78667;BME280;67983;59.830;30.198;2023-05-10T02:05:43;102235.59;;;8.96;37.42
78667;BME280;67983;59.830;30.198;2023-05-10T02:08:14;102234.59;;;8.98;37.75
78667;BME280;67983;59.830;30.198;2023-05-10T02:10:43;102237.31;;;8.97;37.36
78667;BME280;67983;59.830;30.198;2023-05-10T02:13:14;102234.53;;;9.00;37.50
78667;BME280;67983;59.830;30.198;2023-05-10T02:15:42;102245.03;;;9.03;37.78
78667;BME280;67983;59.830;30.198;2023-05-10T02:18:12;102240.63;;;9.04;37.69
78667;BME280;67983;59.830;30.198;2023-05-10T02:20:43;102239.66;;;9.06;37.47
78667;BME280;67983;59.830;30.198;2023-05-10T02:23:12;102243.91;;;9.10;37.83
78667;BME280;67983;59.830;30.198;2023-05-10T02:25:43;102242.06;;;9.12;37.92
78667;BME280;67983;59.830;30.198;2023-05-10T02:28:12;102246.44;;;9.13;38.18
78667;BME280;67983;59.830;30.198;2023-05-10T02:30:41;102238.56;;;9.12;38.06
78667;BME280;67983;59.830;30.198;2023-05-10T02:33:12;102244.59;;;9.15;38.30
78667;BME280;67983;59.830;30.198;2023-05-10T02:35:40;102247.13;;;9.18;38.47
78667;BME280;67983;59.830;30.198;2023-05-10T02:38:08;102250.63;;;9.19;38.27
78667;BME280;67983;59.830;30.198;2023-05-10T02:40:38;102249.84;;;9.17;38.77
78667;BME280;67983;59.830;30.198;2023-05-10T02:43:13;102254.22;;;9.18;38.74
78667;BME280;67983;59.830;30.198;2023-05-10T02:45:42;102253.19;;;9.22;38.92
78667;BME280;67983;59.830;30.198;2023-05-10T02:48:09;102249.56;;;9.24;39.27
78667;BME280;67983;59.830;30.198;2023-05-10T02:50:39;102252.06;;;9.29;38.75
78667;BME280;67983;59.830;30.198;2023-05-10T02:53:15;102249.47;;;9.27;39.46
78667;BME280;67983;59.830;30.198;2023-05-10T02:55:50;102246.81;;;9.27;38.79
78667;BME280;67983;59.830;30.198;2023-05-10T02:58:19;102261.56;;;9.35;39.33
78667;BME280;67983;59.830;30.198;2023-05-10T03:00:46;102254.44;;;9.37;39.32
78667;BME280;67983;59.830;30.198;2023-05-10T03:03:17;102255.25;;;9.39;39.15
78667;BME280;67983;59.830;30.198;2023-05-10T03:05:47;102249.13;;;9.37;39.47
78667;BME280;67983;59.830;30.198;2023-05-10T03:08:15;102255.34;;;9.36;39.08
78667;BME280;67983;59.830;30.198;2023-05-10T03:10:50;102254.38;;;9.38;39.25
78667;BME280;67983;59.830;30.198;2023-05-10T03:13:29;102249.75;;;9.43;39.17
78667;BME280;67983;59.830;30.198;2023-05-10T03:16:08;102253.97;;;9.49;38.71
78667;BME280;67983;59.830;30.198;2023-05-10T03:18:42;102251.97;;;9.55;38.72
78667;BME280;67983;59.830;30.198;2023-05-10T03:21:13;102248.22;;;9.61;38.92
78667;BME280;67983;59.830;30.198;2023-05-10T03:23:44;102248.00;;;9.67;38.34
78667;BME280;67983;59.830;30.198;2023-05-10T03:26:17;102245.16;;;9.72;38.70
78667;BME280;67983;59.830;30.198;2023-05-10T03:28:50;102250.06;;;9.82;38.59
78667;BME280;67983;59.830;30.198;2023-05-10T03:31:17;102248.16;;;9.86;38.56
78667;BME280;67983;59.830;30.198;2023-05-10T03:33:46;102251.47;;;9.91;38.48
78667;BME280;67983;59.830;30.198;2023-05-10T03:36:15;102238.16;;;9.93;38.44
78667;BME280;67983;59.830;30.198;2023-05-10T03:38:43;102242.13;;;10.04;38.06
78667;BME280;67983;59.830;30.198;2023-05-10T03:41:11;102247.25;;;10.09;38.07
78667;BME280;67983;59.830;30.198;2023-05-10T03:43:39;102247.94;;;10.14;37.86
78667;BME280;67983;59.830;30.198;2023-05-10T03:46:06;102253.19;;;10.15;38.25
78667;BME280;67983;59.830;30.198;2023-05-10T03:48:35;102253.91;;;10.19;38.02
78667;BME280;67983;59.830;30.198;2023-05-10T03:51:03;102251.16;;;10.22;37.78
78667;BME280;67983;59.830;30.198;2023-05-10T03:53:33;102257.84;;;10.32;37.71
78667;BME280;67983;59.830;30.198;2023-05-10T03:56:04;102256.59;;;10.41;38.08
78667;BME280;67983;59.830;30.198;2023-05-10T03:58:31;102253.63;;;10.48;37.58
78667;BME280;67983;59.830;30.198;2023-05-10T04:00:58;102254.94;;;10.60;37.48
78667;BME280;67983;59.830;30.198;2023-05-10T04:03:25;102255.38;;;10.70;37.28
78667;BME280;67983;59.830;30.198;2023-05-10T04:05:58;102259.41;;;10.80;37.46
78667;BME280;67983;59.830;30.198;2023-05-10T04:08:27;102257.28;;;10.88;37.40
78667;BME280;67983;59.830;30.198;2023-05-10T04:11:11;102250.63;;;10.98;37.17
78667;BME280;67983;59.830;30.198;2023-05-10T04:13:39;102253.50;;;11.14;36.73
78667;BME280;67983;59.830;30.198;2023-05-10T04:16:06;102257.34;;;11.27;36.64
78667;BME280;67983;59.830;30.198;2023-05-10T04:18:36;102249.75;;;11.38;36.35
78667;BME280;67983;59.830;30.198;2023-05-10T04:21:03;102252.59;;;11.54;36.63
78667;BME280;67983;59.830;30.198;2023-05-10T04:23:30;102249.22;;;11.70;36.14
78667;BME280;67983;59.830;30.198;2023-05-10T04:26:00;102256.53;;;11.85;35.90
78667;BME280;67983;59.830;30.198;2023-05-10T04:28:30;102262.06;;;11.99;35.69
78667;BME280;67983;59.830;30.198;2023-05-10T04:31:01;102250.84;;;12.11;35.96
78667;BME280;67983;59.830;30.198;2023-05-10T04:33:29;102254.69;;;12.23;35.41
78667;BME280;67983;59.830;30.198;2023-05-10T04:35:57;102248.78;;;12.35;35.33
78667;BME280;67983;59.830;30.198;2023-05-10T04:38:24;102254.44;;;12.46;34.94
78667;BME280;67983;59.830;30.198;2023-05-10T04:40:52;102262.59;;;12.61;34.49
78667;BME280;67983;59.830;30.198;2023-05-10T04:43:23;102256.75;;;12.71;34.19
78667;BME280;67983;59.830;30.198;2023-05-10T04:46:17;102262.28;;;12.84;33.33
78667;BME280;67983;59.830;30.198;2023-05-10T04:48:44;102265.19;;;12.97;33.13
78667;BME280;67983;59.830;30.198;2023-05-10T04:51:10;102259.16;;;13.10;32.72
78667;BME280;67983;59.830;30.198;2023-05-10T04:53:37;102255.91;;;13.23;32.63
78667;BME280;67983;59.830;30.198;2023-05-10T04:56:05;102261.38;;;13.37;32.74
78667;BME280;67983;59.830;30.198;2023-05-10T04:58:34;102259.84;;;13.49;31.94
78667;BME280;67983;59.830;30.198;2023-05-10T05:01:05;102254.88;;;13.58;31.63
78667;BME280;67983;59.830;30.198;2023-05-10T05:03:35;102258.75;;;13.68;31.14
78667;BME280;67983;59.830;30.198;2023-05-10T05:06:03;102260.13;;;13.75;31.27
78667;BME280;67983;59.830;30.198;2023-05-10T05:08:30;102263.09;;;13.87;30.39
78667;BME280;67983;59.830;30.198;2023-05-10T05:10:57;102255.16;;;13.85;29.77
78667;BME280;67983;59.830;30.198;2023-05-10T05:13:25;102266.25;;;13.93;29.96
78667;BME280;67983;59.830;30.198;2023-05-10T05:16:00;102266.63;;;14.03;29.72
78667;BME280;67983;59.830;30.198;2023-05-10T05:18:28;102267.94;;;14.12;29.54
78667;BME280;67983;59.830;30.198;2023-05-10T05:20:59;102258.53;;;14.20;29.11
78667;BME280;67983;59.830;30.198;2023-05-10T05:23:26;102262.22;;;14.33;29.31
78667;BME280;67983;59.830;30.198;2023-05-10T05:25:54;102259.66;;;14.48;28.96
78667;BME280;67983;59.830;30.198;2023-05-10T05:28:21;102263.09;;;14.50;28.55
78667;BME280;67983;59.830;30.198;2023-05-10T05:30:49;102262.41;;;14.46;28.41
78667;BME280;67983;59.830;30.198;2023-05-10T05:33:16;102264.47;;;14.57;28.48
78667;BME280;67983;59.830;30.198;2023-05-10T05:35:43;102258.69;;;14.64;27.92
78667;BME280;67983;59.830;30.198;2023-05-10T05:38:16;102258.34;;;14.71;28.10
78667;BME280;67983;59.830;30.198;2023-05-10T05:40:45;102252.53;;;14.78;27.97
78667;BME280;67983;59.830;30.198;2023-05-10T05:43:14;102254.81;;;14.84;28.04
78667;BME280;67983;59.830;30.198;2023-05-10T05:45:42;102252.56;;;14.92;27.70
78667;BME280;67983;59.830;30.198;2023-05-10T05:48:09;102255.47;;;15.04;27.63
78667;BME280;67983;59.830;30.198;2023-05-10T05:50:36;102250.50;;;15.12;27.47
78667;BME280;67983;59.830;30.198;2023-05-10T05:53:05;102260.66;;;15.21;27.02
78667;BME280;67983;59.830;30.198;2023-05-10T05:55:34;102262.16;;;15.25;27.21
78667;BME280;67983;59.830;30.198;2023-05-10T05:58:01;102266.38;;;15.29;26.93
78667;BME280;67983;59.830;30.198;2023-05-10T06:00:29;102267.53;;;15.25;27.03
78667;BME280;67983;59.830;30.198;2023-05-10T06:02:56;102263.22;;;15.22;26.96
78667;BME280;67983;59.830;30.198;2023-05-10T06:05:24;102259.97;;;15.17;27.01
78667;BME280;67983;59.830;30.198;2023-05-10T06:07:51;102261.00;;;15.15;27.18
78667;BME280;67983;59.830;30.198;2023-05-10T06:10:19;102261.00;;;15.15;27.58
78667;BME280;67983;59.830;30.198;2023-05-10T06:12:47;102261.84;;;15.15;27.84
78667;BME280;67983;59.830;30.198;2023-05-10T06:15:14;102261.50;;;15.21;27.95
78667;BME280;67983;59.830;30.198;2023-05-10T06:17:42;102262.84;;;15.29;28.05
78667;BME280;67983;59.830;30.198;2023-05-10T06:20:11;102260.16;;;15.29;28.22
78667;BME280;67983;59.830;30.198;2023-05-10T06:22:38;102256.63;;;15.28;28.19
78667;BME280;67983;59.830;30.198;2023-05-10T06:25:07;102261.88;;;15.30;28.08
78667;BME280;67983;59.830;30.198;2023-05-10T06:27:37;102258.53;;;15.26;27.96
78667;BME280;67983;59.830;30.198;2023-05-10T06:30:07;102260.44;;;15.24;28.22
78667;BME280;67983;59.830;30.198;2023-05-10T06:32:34;102254.44;;;15.20;28.18
78667;BME280;67983;59.830;30.198;2023-05-10T06:35:02;102264.38;;;15.18;28.38
78667;BME280;67983;59.830;30.198;2023-05-10T06:37:29;102259.41;;;15.27;28.50
78667;BME280;67983;59.830;30.198;2023-05-10T06:39:58;102261.72;;;15.33;28.73
78667;BME280;67983;59.830;30.198;2023-05-10T06:42:25;102256.28;;;15.34;28.61
78667;BME280;67983;59.830;30.198;2023-05-10T06:44:52;102269.66;;;15.34;28.71
78667;BME280;67983;59.830;30.198;2023-05-10T06:47:21;102271.06;;;15.40;29.01
78667;BME280;67983;59.830;30.198;2023-05-10T06:49:48;102270.00;;;15.42;29.22
78667;BME280;67983;59.830;30.198;2023-05-10T06:52:16;102276.88;;;15.46;29.25
78667;BME280;67983;59.830;30.198;2023-05-10T06:54:47;102273.94;;;15.51;29.30
78667;BME280;67983;59.830;30.198;2023-05-10T06:57:14;102271.94;;;15.54;29.49
78667;BME280;67983;59.830;30.198;2023-05-10T06:59:40;102277.88;;;15.60;29.47
78667;BME280;67983;59.830;30.198;2023-05-10T07:02:11;102275.03;;;15.63;29.55
78667;BME280;67983;59.830;30.198;2023-05-10T07:04:39;102275.81;;;15.65;30.15
78667;BME280;67983;59.830;30.198;2023-05-10T07:07:07;102265.34;;;15.74;29.73
78667;BME280;67983;59.830;30.198;2023-05-10T07:09:59;102269.84;;;15.88;29.90
78667;BME280;67983;59.830;30.198;2023-05-10T07:12:29;102265.97;;;16.06;29.85
78667;BME280;67983;59.830;30.198;2023-05-10T07:14:57;102276.97;;;16.16;29.55
78667;BME280;67983;59.830;30.198;2023-05-10T07:17:24;102271.50;;;16.18;29.54
78667;BME280;67983;59.830;30.198;2023-05-10T07:19:52;102280.97;;;16.23;29.77
78667;BME280;67983;59.830;30.198;2023-05-10T07:22:22;102272.66;;;16.28;29.65
78667;BME280;67983;59.830;30.198;2023-05-10T07:24:48;102273.31;;;16.31;29.59
78667;BME280;67983;59.830;30.198;2023-05-10T07:27:18;102276.63;;;16.35;29.44
78667;BME280;67983;59.830;30.198;2023-05-10T07:29:44;102276.78;;;16.46;29.56
78667;BME280;67983;59.830;30.198;2023-05-10T07:32:12;102269.41;;;16.50;29.65
78667;BME280;67983;59.830;30.198;2023-05-10T07:34:40;102268.69;;;16.60;29.57
78667;BME280;67983;59.830;30.198;2023-05-10T07:37:08;102273.56;;;16.68;29.29
78667;BME280;67983;59.830;30.198;2023-05-10T07:39:35;102279.78;;;16.68;29.05
78667;BME280;67983;59.830;30.198;2023-05-10T07:42:03;102273.50;;;16.82;29.13
78667;BME280;67983;59.830;30.198;2023-05-10T07:44:57;102278.97;;;16.81;28.82
78667;BME280;67983;59.830;30.198;2023-05-10T07:47:25;102277.88;;;16.70;28.60
78667;BME280;67983;59.830;30.198;2023-05-10T07:49:52;102274.81;;;16.62;28.59
78667;BME280;67983;59.830;30.198;2023-05-10T07:52:20;102290.03;;;16.62;28.65
78667;BME280;67983;59.830;30.198;2023-05-10T07:54:47;102277.59;;;16.61;28.13
78667;BME280;67983;59.830;30.198;2023-05-10T07:57:14;102288.63;;;16.56;28.29
78667;BME280;67983;59.830;30.198;2023-05-10T07:59:44;102282.91;;;16.48;28.10
78667;BME280;67983;59.830;30.198;2023-05-10T08:02:12;102279.69;;;16.43;28.09
78667;BME280;67983;59.830;30.198;2023-05-10T08:04:40;102285.16;;;16.41;27.96
78667;BME280;67983;59.830;30.198;2023-05-10T08:07:07;102282.56;;;16.40;28.17
78667;BME280;67983;59.830;30.198;2023-05-10T08:09:36;102279.69;;;16.43;27.62
78667;BME280;67983;59.830;30.198;2023-05-10T08:12:03;102276.13;;;16.42;27.77
78667;BME280;67983;59.830;30.198;2023-05-10T08:14:31;102278.94;;;16.41;27.59
78667;BME280;67983;59.830;30.198;2023-05-10T08:16:58;102279.03;;;16.39;27.48
78667;BME280;67983;59.830;30.198;2023-05-10T08:19:25;102279.69;;;16.43;27.41
78667;BME280;67983;59.830;30.198;2023-05-10T08:21:52;102285.59;;;16.48;27.76
78667;BME280;67983;59.830;30.198;2023-05-10T08:24:21;102286.81;;;16.57;27.48
78667;BME280;67983;59.830;30.198;2023-05-10T08:26:49;102281.34;;;16.58;27.42
78667;BME280;67983;59.830;30.198;2023-05-10T08:29:19;102276.75;;;16.60;27.38
78667;BME280;67983;59.830;30.198;2023-05-10T08:31:46;102282.75;;;16.64;27.38
78667;BME280;67983;59.830;30.198;2023-05-10T08:34:14;102274.53;;;16.67;27.45
78667;BME280;67983;59.830;30.198;2023-05-10T08:36:42;102272.59;;;16.69;27.62
78667;BME280;67983;59.830;30.198;2023-05-10T08:39:36;102270.16;;;16.79;27.62
78667;BME280;67983;59.830;30.198;2023-05-10T08:42:07;102280.19;;;16.89;27.84
78667;BME280;67983;59.830;30.198;2023-05-10T08:44:39;102280.28;;;16.88;27.73
78667;BME280;67983;59.830;30.198;2023-05-10T08:47:08;102272.63;;;16.82;27.96
78667;BME280;67983;59.830;30.198;2023-05-10T08:49:37;102277.72;;;16.86;27.96
78667;BME280;67983;59.830;30.198;2023-05-10T08:52:08;102280.56;;;16.83;28.06
78667;BME280;67983;59.830;30.198;2023-05-10T08:54:37;102284.44;;;16.79;28.02
78667;BME280;67983;59.830;30.198;2023-05-10T08:57:07;102282.81;;;16.77;28.10
78667;BME280;67983;59.830;30.198;2023-05-10T08:59:35;102272.75;;;16.80;28.05
78667;BME280;67983;59.830;30.198;2023-05-10T09:02:04;102283.41;;;16.94;27.94
78667;BME280;67983;59.830;30.198;2023-05-10T09:04:34;102278.81;;;17.09;27.83
78667;BME280;67983;59.830;30.198;2023-05-10T09:07:01;102281.84;;;17.17;27.43
78667;BME280;67983;59.830;30.198;2023-05-10T09:09:31;102278.19;;;17.18;27.29
78667;BME280;67983;59.830;30.198;2023-05-10T09:11:59;102274.97;;;17.26;27.24
78667;BME280;67983;59.830;30.198;2023-05-10T09:14:28;102292.91;;;17.38;27.07
78667;BME280;67983;59.830;30.198;2023-05-10T09:16:56;102275.84;;;17.39;26.44
78667;BME280;67983;59.830;30.198;2023-05-10T09:19:23;102281.72;;;17.44;26.81
78667;BME280;67983;59.830;30.198;2023-05-10T09:21:56;102272.41;;;17.50;26.38
78667;BME280;67983;59.830;30.198;2023-05-10T09:24:25;102277.53;;;17.53;26.08
78667;BME280;67983;59.830;30.198;2023-05-10T09:26:53;102275.38;;;17.58;25.47
78667;BME280;67983;59.830;30.198;2023-05-10T09:29:20;102272.28;;;17.64;25.31
78667;BME280;67983;59.830;30.198;2023-05-10T09:31:49;102270.38;;;17.79;25.19
78667;BME280;67983;59.830;30.198;2023-05-10T09:34:28;102281.63;;;17.84;25.18
78667;BME280;67983;59.830;30.198;2023-05-10T09:36:59;102276.88;;;17.87;25.27
78667;BME280;67983;59.830;30.198;2023-05-10T09:39:31;102270.00;;;17.96;24.59
78667;BME280;67983;59.830;30.198;2023-05-10T09:41:59;102280.19;;;18.04;24.71
78667;BME280;67983;59.830;30.198;2023-05-10T09:44:29;102261.56;;;18.13;24.20
78667;BME280;67983;59.830;30.198;2023-05-10T09:46:58;102266.91;;;18.26;24.11
78667;BME280;67983;59.830;30.198;2023-05-10T09:49:28;102268.09;;;18.46;23.92
78667;BME280;67983;59.830;30.198;2023-05-10T09:52:02;102276.53;;;18.65;23.96
78667;BME280;67983;59.830;30.198;2023-05-10T09:54:29;102270.47;;;18.74;23.74
78667;BME280;67983;59.830;30.198;2023-05-10T09:56:56;102274.31;;;18.94;23.52
78667;BME280;67983;59.830;30.198;2023-05-10T09:59:26;102268.91;;;19.18;22.81
78667;BME280;67983;59.830;30.198;2023-05-10T10:01:56;102269.31;;;19.47;22.26
78667;BME280;67983;59.830;30.198;2023-05-10T10:04:27;102258.44;;;19.71;21.57
78667;BME280;67983;59.830;30.198;2023-05-10T10:07:04;102261.22;;;20.03;21.68
78667;BME280;67983;59.830;30.198;2023-05-10T10:09:32;102267.50;;;20.47;21.34
78667;BME280;67983;59.830;30.198;2023-05-10T10:12:00;102273.00;;;20.88;20.54
78667;BME280;67983;59.830;30.198;2023-05-10T10:14:30;102253.84;;;21.33;20.47
78667;BME280;67983;59.830;30.198;2023-05-10T10:16:57;102259.47;;;21.82;20.19
78667;BME280;67983;59.830;30.198;2023-05-10T10:19:28;102257.94;;;22.39;19.57
78667;BME280;67983;59.830;30.198;2023-05-10T10:21:56;102255.53;;;23.03;18.74
78667;BME280;67983;59.830;30.198;2023-05-10T10:24:24;102267.53;;;23.84;17.93
78667;BME280;67983;59.830;30.198;2023-05-10T10:26:52;102265.84;;;24.56;16.97
78667;BME280;67983;59.830;30.198;2023-05-10T10:29:25;102260.59;;;25.16;16.33
78667;BME280;67983;59.830;30.198;2023-05-10T10:32:00;102269.97;;;25.74;14.87
78667;BME280;67983;59.830;30.198;2023-05-10T10:34:35;102259.22;;;26.14;14.77
78667;BME280;67983;59.830;30.198;2023-05-10T10:37:04;102261.72;;;26.74;14.60
78667;BME280;67983;59.830;30.198;2023-05-10T10:39:32;102256.72;;;27.51;14.63
78667;BME280;67983;59.830;30.198;2023-05-10T10:42:03;102256.13;;;28.11;13.04
78667;BME280;67983;59.830;30.198;2023-05-10T10:44:36;102244.97;;;28.75;12.76
78667;BME280;67983;59.830;30.198;2023-05-10T10:47:09;102241.63;;;29.55;11.40
78667;BME280;67983;59.830;30.198;2023-05-10T10:50:01;102251.41;;;29.93;11.57
78667;BME280;67983;59.830;30.198;2023-05-10T10:52:31;102263.13;;;30.38;11.27
78667;BME280;67983;59.830;30.198;2023-05-10T10:55:01;102264.09;;;30.67;10.76
78667;BME280;67983;59.830;30.198;2023-05-10T10:57:43;102253.78;;;31.18;10.62
78667;BME280;67983;59.830;30.198;2023-05-10T11:00:27;102260.19;;;31.66;10.07
78667;BME280;67983;59.830;30.198;2023-05-10T11:03:03;102255.50;;;31.95;9.75
78667;BME280;67983;59.830;30.198;2023-05-10T11:05:39;102261.47;;;32.11;9.50
78667;BME280;67983;59.830;30.198;2023-05-10T11:08:09;102253.31;;;32.45;9.18
78667;BME280;67983;59.830;30.198;2023-05-10T11:10:39;102259.06;;;32.69;8.85
78667;BME280;67983;59.830;30.198;2023-05-10T11:13:09;102245.97;;;32.72;9.07
78667;BME280;67983;59.830;30.198;2023-05-10T11:15:38;102247.91;;;33.11;8.47
78667;BME280;67983;59.830;30.198;2023-05-10T11:18:18;102252.91;;;33.47;8.57
78667;BME280;67983;59.830;30.198;2023-05-10T11:20:51;102244.63;;;33.60;7.82
78667;BME280;67983;59.830;30.198;2023-05-10T11:23:21;102242.53;;;33.55;7.89
78667;BME280;67983;59.830;30.198;2023-05-10T11:25:48;102245.13;;;33.95;8.27
78667;BME280;67983;59.830;30.198;2023-05-10T11:28:17;102243.81;;;34.42;8.14
78667;BME280;67983;59.830;30.198;2023-05-10T11:30:45;102237.44;;;35.23;8.21
78667;BME280;67983;59.830;30.198;2023-05-10T11:33:17;102236.53;;;35.66;7.73
78667;BME280;67983;59.830;30.198;2023-05-10T11:35:46;102238.69;;;35.64;7.42
78667;BME280;67983;59.830;30.198;2023-05-10T11:38:14;102231.25;;;35.46;7.28
78667;BME280;67983;59.830;30.198;2023-05-10T11:40:43;102226.25;;;35.73;7.58
78667;BME280;67983;59.830;30.198;2023-05-10T11:43:10;102245.06;;;36.43;7.55
78667;BME280;67983;59.830;30.198;2023-05-10T11:45:38;102234.06;;;36.66;6.84
78667;BME280;67983;59.830;30.198;2023-05-10T11:48:07;102227.78;;;36.47;6.95
78667;BME280;67983;59.830;30.198;2023-05-10T11:50:34;102228.81;;;36.88;6.93
78667;BME280;67983;59.830;30.198;2023-05-10T11:53:01;102231.97;;;37.27;6.69
78667;BME280;67983;59.830;30.198;2023-05-10T11:55:33;102223.16;;;37.18;6.44
78667;BME280;67983;59.830;30.198;2023-05-10T11:58:02;102225.22;;;36.99;6.53
78667;BME280;67983;59.830;30.198;2023-05-10T12:00:30;102214.72;;;36.66;6.60
78667;BME280;67983;59.830;30.198;2023-05-10T12:03:00;102209.88;;;36.50;7.07
78667;BME280;67983;59.830;30.198;2023-05-10T12:05:31;102220.59;;;36.46;6.66
78667;BME280;67983;59.830;30.198;2023-05-10T12:08:11;102213.16;;;35.87;7.07
78667;BME280;67983;59.830;30.198;2023-05-10T12:10:43;102214.78;;;36.06;7.37
78667;BME280;67983;59.830;30.198;2023-05-10T12:13:11;102209.50;;;35.31;7.38
78667;BME280;67983;59.830;30.198;2023-05-10T12:15:40;102203.88;;;34.76;8.19
78667;BME280;67983;59.830;30.198;2023-05-10T12:18:09;102209.13;;;34.60;8.58
78667;BME280;67983;59.830;30.198;2023-05-10T12:20:36;102201.88;;;34.65;8.38
78667;BME280;67983;59.830;30.198;2023-05-10T12:23:05;102213.69;;;34.72;8.25
78667;BME280;67983;59.830;30.198;2023-05-10T12:25:37;102209.31;;;34.33;7.93
78667;BME280;67983;59.830;30.198;2023-05-10T12:28:07;102207.78;;;34.06;8.42
78667;BME280;67983;59.830;30.198;2023-05-10T12:30:36;102213.94;;;33.50;9.12
78667;BME280;67983;59.830;30.198;2023-05-10T12:33:07;102201.25;;;32.10;9.69
78667;BME280;67983;59.830;30.198;2023-05-10T12:35:43;102193.09;;;31.28;10.10
78667;BME280;67983;59.830;30.198;2023-05-10T12:38:26;102196.16;;;29.68;10.90
78667;BME280;67983;59.830;30.198;2023-05-10T12:40:56;102189.75;;;28.19;11.92
78667;BME280;67983;59.830;30.198;2023-05-10T12:43:26;102195.31;;;27.00;12.42
78667;BME280;67983;59.830;30.198;2023-05-10T12:45:54;102193.25;;;26.04;13.20
78667;BME280;67983;59.830;30.198;2023-05-10T12:48:46;102185.53;;;25.15;14.42
78667;BME280;67983;59.830;30.198;2023-05-10T12:51:20;102187.03;;;24.92;14.38
78667;BME280;67983;59.830;30.198;2023-05-10T12:53:48;102190.59;;;24.49;15.02
78667;BME280;67983;59.830;30.198;2023-05-10T12:56:16;102190.78;;;23.84;15.68
78667;BME280;67983;59.830;30.198;2023-05-10T12:58:45;102181.25;;;23.43;16.08